createdAt,value
2022-11-04T14:20:24.702Z,20.36
2022-11-04T14:22:54.412Z,19.76
2022-11-04T14:25:29.418Z,19.60
2022-11-04T14:27:57.466Z,19.52
2022-11-04T14:30:32.735Z,19.48
2022-11-04T14:33:01.123Z,19.46
2022-11-04T14:35:30.701Z,19.44
2022-11-04T14:37:58.327Z,19.41
2022-11-04T14:40:27.085Z,19.42
2022-11-04T14:42:55.639Z,19.41
2022-11-04T14:45:24.335Z,19.41
2022-11-04T14:47:52.937Z,19.39
2022-11-04T14:50:21.815Z,19.39
2022-11-04T14:52:52.047Z,19.39
2022-11-04T14:55:19.934Z,19.39
2022-11-04T14:57:48.103Z,19.37
2022-11-04T15:00:21.097Z,19.37
2022-11-04T15:02:49.040Z,19.37
2022-11-04T15:05:22.253Z,19.36
2022-11-04T15:07:51.249Z,19.35
2022-11-04T15:10:20.514Z,19.37
2022-11-04T15:12:55.146Z,19.33
2022-11-04T15:15:29.832Z,19.34
2022-11-04T15:17:58.692Z,19.33
2022-11-04T15:20:26.298Z,19.32
2022-11-04T15:22:57.782Z,19.33
2022-11-04T15:25:25.786Z,19.32
2022-11-04T15:27:53.396Z,19.33
2022-11-04T15:30:21.622Z,19.32
2022-11-04T15:32:58.552Z,19.32
2022-11-04T15:35:26.400Z,19.31
2022-11-04T15:37:55.843Z,19.30
2022-11-04T15:40:23.472Z,19.31
2022-11-04T15:42:51.438Z,19.30
2022-11-04T15:45:27.102Z,19.31
2022-11-04T15:48:10.114Z,19.31
2022-11-04T15:50:38.852Z,19.29
2022-11-04T15:53:10.557Z,19.30
2022-11-04T15:55:39.277Z,19.28
2022-11-04T15:58:07.316Z,19.28
2022-11-04T16:00:35.163Z,19.27
2022-11-04T16:03:03.424Z,19.25
2022-11-04T16:05:33.343Z,19.25
2022-11-04T16:08:17.016Z,19.26
2022-11-04T16:10:45.376Z,19.27
2022-11-04T16:13:22.611Z,19.28
2022-11-04T16:15:51.310Z,19.30
2022-11-04T16:18:22.227Z,19.31
2022-11-04T16:20:50.518Z,19.32
2022-11-04T16:23:20.881Z,19.33
2022-11-04T16:25:49.377Z,19.33
2022-11-04T16:28:20.479Z,19.32
2022-11-04T16:30:56.572Z,19.32
2022-11-04T16:33:24.079Z,19.33
2022-11-04T16:35:51.629Z,19.33
2022-11-04T16:38:20.613Z,19.36
2022-11-04T16:40:49.012Z,19.35
2022-11-04T16:43:17.805Z,19.35
2022-11-04T16:45:48.374Z,19.35
2022-11-04T16:48:20.482Z,19.36
2022-11-04T16:50:49.003Z,19.34
2022-11-04T16:53:16.814Z,19.35
2022-11-04T16:55:46.114Z,19.34
2022-11-04T16:58:14.285Z,19.35
2022-11-04T17:00:41.895Z,19.34
2022-11-04T17:03:13.424Z,19.34
2022-11-04T17:05:41.106Z,19.34
2022-11-04T17:08:09.856Z,19.34
2022-11-04T17:10:37.480Z,19.35
2022-11-04T17:13:06.373Z,19.35
2022-11-04T17:15:34.515Z,19.33
2022-11-04T17:18:02.141Z,19.34
2022-11-04T17:20:30.140Z,19.33
2022-11-04T17:22:57.674Z,19.34
2022-11-04T17:25:25.819Z,19.34
2022-11-04T17:27:53.486Z,19.34
2022-11-04T17:30:22.540Z,19.33
2022-11-04T17:32:50.119Z,19.34
2022-11-04T17:35:17.878Z,19.32
2022-11-04T17:37:45.460Z,19.32
2022-11-04T17:40:13.760Z,19.30
2022-11-04T17:42:58.813Z,19.31
2022-11-04T17:45:27.991Z,19.31
2022-11-04T17:47:55.614Z,19.31
2022-11-04T17:50:23.253Z,19.30
2022-11-04T17:52:51.042Z,19.29
2022-11-04T17:55:23.186Z,19.24
2022-11-04T17:57:53.960Z,19.25
2022-11-04T18:00:24.315Z,19.22
2022-11-04T18:02:53.390Z,19.23
2022-11-04T18:05:21.106Z,19.22
2022-11-04T18:07:48.762Z,19.25
2022-11-04T18:10:16.549Z,19.26
2022-11-04T18:12:44.083Z,19.27
2022-11-04T18:15:15.122Z,19.28
2022-11-04T18:17:45.225Z,18.10
2022-11-04T18:20:15.460Z,14.58
2022-11-04T18:22:43.413Z,15.66
2022-11-04T18:25:11.426Z,17.35
2022-11-04T18:27:39.070Z,18.19
2022-11-04T18:30:07.342Z,18.61
2022-11-04T18:32:35.221Z,18.88
2022-11-04T18:35:03.000Z,19.03
2022-11-04T18:37:33.597Z,19.16
2022-11-04T18:40:02.389Z,19.28
2022-11-04T18:42:30.282Z,19.37
2022-11-04T18:45:00.660Z,19.50
2022-11-04T18:47:29.548Z,19.54
2022-11-04T18:49:58.270Z,19.60
2022-11-04T18:52:28.277Z,19.67
2022-11-04T18:54:59.091Z,19.70
2022-11-04T18:57:29.438Z,19.73
2022-11-04T18:59:59.330Z,19.80
2022-11-04T19:02:27.247Z,19.85
2022-11-04T19:04:55.065Z,19.88
2022-11-04T19:07:23.051Z,19.91
2022-11-04T19:09:50.653Z,19.99
2022-11-04T19:12:37.238Z,20.03
2022-11-04T19:15:05.556Z,20.09
2022-11-04T19:17:33.514Z,20.13
2022-11-04T19:20:05.428Z,20.16
2022-11-04T19:22:36.316Z,20.21
2022-11-04T19:25:03.891Z,20.27
2022-11-04T19:27:33.096Z,20.29
2022-11-04T19:30:01.030Z,20.34
2022-11-04T19:32:28.681Z,20.38
2022-11-04T19:34:56.240Z,20.42
2022-11-04T19:37:23.917Z,20.46
2022-11-04T19:39:53.588Z,20.47
2022-11-04T19:42:38.738Z,20.51
2022-11-04T19:45:08.400Z,20.57
2022-11-04T19:47:36.022Z,20.35
2022-11-04T19:50:03.829Z,20.23
2022-11-04T19:52:32.000Z,20.18
2022-11-04T19:55:00.024Z,20.15
2022-11-04T19:57:28.104Z,20.16
2022-11-04T19:59:55.805Z,20.16
2022-11-04T20:02:25.079Z,20.16
2022-11-04T20:04:53.032Z,20.16
2022-11-04T20:07:20.839Z,20.16
2022-11-04T20:09:48.620Z,20.18
2022-11-04T20:12:34.169Z,20.20
2022-11-04T20:15:02.015Z,20.18
2022-11-04T20:17:31.330Z,20.16
2022-11-04T20:19:59.004Z,20.15
2022-11-04T20:22:27.865Z,20.15
2022-11-04T20:24:55.482Z,20.14
2022-11-04T20:27:23.201Z,20.14
2022-11-04T20:29:50.786Z,20.15
2022-11-04T20:32:18.453Z,20.13
2022-11-04T20:34:47.561Z,20.12
2022-11-04T20:37:15.266Z,20.14
2022-11-04T20:39:44.044Z,20.13
2022-11-04T20:42:11.714Z,20.14
2022-11-04T20:44:39.310Z,20.14
2022-11-04T20:47:07.831Z,20.12
2022-11-04T20:49:35.603Z,20.12
2022-11-04T20:52:04.901Z,20.11
2022-11-04T20:54:32.575Z,20.11
2022-11-04T20:57:00.306Z,20.12
2022-11-04T20:59:28.465Z,20.13
2022-11-04T21:01:56.595Z,20.12
2022-11-04T21:04:24.433Z,20.13
2022-11-04T21:06:52.068Z,20.11
2022-11-04T21:09:21.992Z,20.13
2022-11-04T21:11:50.469Z,20.12
2022-11-04T21:14:19.597Z,20.12
2022-11-04T21:16:47.492Z,20.10
2022-11-04T21:19:15.994Z,20.11
2022-11-04T21:21:44.026Z,20.11
2022-11-04T21:24:12.616Z,20.11
2022-11-04T21:26:41.852Z,20.09
2022-11-04T21:29:10.542Z,20.10
2022-11-04T21:31:38.318Z,20.08
2022-11-04T21:34:05.945Z,20.08
2022-11-04T21:36:33.615Z,20.07
2022-11-04T21:39:01.306Z,20.06
2022-11-04T21:41:29.805Z,20.05
2022-11-04T21:43:59.049Z,20.05
2022-11-04T21:46:27.196Z,20.04
2022-11-04T21:48:55.539Z,20.04
2022-11-04T21:51:23.487Z,20.03
2022-11-04T21:53:51.185Z,20.03
2022-11-04T21:56:19.859Z,20.02
2022-11-04T21:58:47.605Z,20.03
2022-11-04T22:01:17.184Z,20.01
2022-11-04T22:03:45.090Z,20.01
2022-11-04T22:06:13.414Z,20.00
2022-11-04T22:08:44.859Z,19.99
2022-11-04T22:11:13.720Z,19.99
2022-11-04T22:13:42.294Z,19.98
2022-11-04T22:16:14.311Z,19.99
2022-11-04T22:18:44.219Z,19.98
2022-11-04T22:21:14.527Z,19.98
2022-11-04T22:23:42.550Z,19.97
2022-11-04T22:26:11.863Z,19.95
2022-11-04T22:28:40.119Z,19.95
2022-11-04T22:31:08.750Z,19.93
2022-11-04T22:33:38.240Z,19.93
2022-11-04T22:36:08.045Z,19.93
2022-11-04T22:38:35.819Z,19.91
2022-11-04T22:41:03.482Z,19.90
2022-11-04T22:43:31.390Z,19.90
2022-11-04T22:45:59.307Z,19.88
2022-11-04T22:48:26.929Z,19.88
2022-11-04T22:50:55.122Z,19.89
2022-11-04T22:53:24.212Z,19.88
2022-11-04T22:55:52.161Z,19.87
2022-11-04T22:58:20.056Z,19.86
2022-11-04T23:00:48.602Z,19.84
2022-11-04T23:03:16.818Z,19.85
2022-11-04T23:05:45.134Z,19.82
2022-11-04T23:08:12.728Z,19.83
2022-11-04T23:10:59.502Z,19.82
2022-11-04T23:13:44.612Z,19.82
2022-11-04T23:30:53.307Z,19.83
2022-11-04T23:33:42.112Z,19.83
2022-11-04T23:36:27.685Z,19.82
2022-11-04T23:38:55.175Z,19.82
2022-11-04T23:41:40.675Z,19.80
2022-11-04T23:44:29.244Z,19.79
2022-11-04T23:47:22.241Z,19.77
2022-11-04T23:50:08.572Z,19.81
2022-11-04T23:52:57.071Z,19.81
2022-11-04T23:55:46.864Z,19.78
2022-11-04T23:58:46.884Z,19.79
